Main page
METAR-TAF:

METAR-TAF

Airports :

Siegerland Airport

Siegen, Germany

latitude: 50-42-28N, longitude: 008-04-59E, elevation: 602 m

Current weather observation

The report was made 5 hours and 35 minutes ago, at 17:50 UTC
Wind 16 kt from the East
Temperature 16°C
Humidity 39%
Pressure 1007 hPa
Visibility 10 km or more
no clouds below 1500 m and no cumulonimbus

METAR: EDGS 221750Z 09016KT CAVOK 16/02 Q1007

Time: 01:25 (23:25 UTC)

Forecast

The report was made 6 hours and 25 minutes ago, at 17:00 UTC
Forecast valid from 22 at 18 UTC to 23 at 03 UTC
Wind 15 kt from the East
Visibility 10 km or more
no clouds below 1500 m and no cumulonimbus
Probability 30% :
Temporary
from 22 at 18 UTC to 23 at 03 UTC
Wind 15 kt from the East with gusts up to 25 kt

TAF: EDGS 221700Z 2218/2303 09015KT CAVOK PROB30 TEMPO 2218/2303 09015G25KT

Weather observations and forecasts of more than 4000 airports (METAR and TAF reports).

The available stations are represented by yellow and red dots on the map.

Hover mouse over dot to see the name of the station.

Then click to see weather observations and forecasts.

To change the map : click on the green buttons with a black cross to zoom in, on the green button with a dash to zoom out, or on the green arrows for adjacent maps.


METAR-TAF: